createdAt,value
2018-04-17T00:00:33.107Z,11.07
2018-04-17T00:04:35.760Z,11.30
2018-04-17T00:08:38.451Z,10.97
2018-04-17T00:12:41.064Z,9.10
2018-04-17T00:16:43.714Z,10.63
2018-04-17T00:20:46.352Z,12.23
2018-04-17T00:24:48.998Z,11.10
2018-04-17T00:28:51.615Z,9.87
2018-04-17T00:32:54.258Z,11.93
2018-04-17T00:36:56.909Z,12.97
2018-04-17T00:40:59.551Z,11.87
2018-04-17T00:45:02.198Z,12.17
2018-04-17T00:49:05.580Z,10.83
2018-04-17T00:53:20.232Z,11.20
2018-04-17T00:57:22.880Z,11.43
2018-04-17T01:01:25.523Z,11.97
2018-04-17T01:05:28.177Z,11.40
2018-04-17T01:09:30.780Z,11.57
2018-04-17T01:13:33.441Z,10.90
2018-04-17T01:17:36.080Z,12.03
2018-04-17T01:21:38.725Z,9.17
2018-04-17T01:25:41.368Z,8.40
2018-04-17T01:29:43.971Z,8.60
2018-04-17T01:33:47.434Z,12.07
2018-04-17T01:37:50.127Z,7.53
2018-04-17T01:41:52.764Z,9.03
2018-04-17T01:45:56.144Z,7.87
2018-04-17T01:49:58.796Z,8.53
2018-04-17T01:54:01.513Z,8.70
2018-04-17T01:58:04.160Z,9.17
2018-04-17T02:02:06.809Z,9.00
2018-04-17T02:06:10.171Z,7.93
2018-04-17T02:10:13.075Z,6.83
2018-04-17T02:14:15.717Z,6.67
2018-04-17T02:18:19.123Z,6.20
2018-04-17T02:22:22.575Z,8.97
2018-04-17T02:26:25.177Z,5.00
2018-04-17T02:30:27.928Z,11.70
2018-04-17T02:34:30.683Z,17.57
2018-04-17T02:38:34.090Z,10.50
2018-04-17T02:42:36.763Z,8.17
2018-04-17T02:46:39.372Z,6.83
2018-04-17T02:50:42.779Z,9.37
2018-04-17T02:54:45.452Z,16.30
2018-04-17T02:58:48.155Z,10.17
2018-04-17T03:02:51.558Z,7.27
2018-04-17T03:06:54.935Z,7.27
2018-04-17T03:10:57.585Z,7.43
2018-04-17T03:15:00.228Z,8.97
2018-04-17T03:19:02.868Z,8.77
2018-04-17T03:23:05.531Z,5.77
2018-04-17T03:27:08.168Z,8.00
2018-04-17T03:31:10.808Z,8.53
2018-04-17T03:35:13.450Z,8.23
2018-04-17T03:39:16.093Z,8.00
2018-04-17T03:43:18.704Z,9.10
2018-04-17T03:47:21.341Z,7.70
2018-04-17T03:51:24.815Z,8.60
2018-04-17T03:55:27.450Z,7.53
2018-04-17T03:59:30.866Z,7.20
2018-04-17T04:03:33.459Z,8.57
2018-04-17T04:07:36.197Z,7.47
2018-04-17T04:11:38.883Z,9.33
2018-04-17T04:15:41.523Z,10.40
2018-04-17T04:19:56.017Z,12.57
2018-04-17T04:24:10.354Z,10.20
2018-04-17T04:28:12.992Z,9.03
2018-04-17T04:32:15.638Z,11.17
2018-04-17T04:36:18.275Z,9.73
2018-04-17T04:40:20.985Z,9.80
2018-04-17T04:44:24.360Z,10.33
2018-04-17T04:48:27.074Z,11.10
2018-04-17T04:52:30.480Z,11.33
2018-04-17T04:56:33.901Z,11.27
2018-04-17T05:00:37.283Z,12.10
2018-04-17T05:04:39.941Z,11.00
2018-04-17T05:08:42.596Z,11.80
2018-04-17T05:12:45.232Z,12.60
2018-04-17T05:16:47.849Z,12.57
2018-04-17T05:20:51.272Z,12.27
2018-04-17T05:24:53.910Z,14.00
2018-04-17T05:28:56.554Z,14.67
2018-04-17T05:32:59.203Z,17.87
2018-04-17T05:37:01.836Z,13.57
2018-04-17T05:41:04.484Z,14.10
2018-04-17T05:45:07.195Z,15.87
2018-04-17T05:49:09.860Z,15.00
2018-04-17T05:53:12.515Z,15.33
2018-04-17T05:57:15.174Z,15.17
2018-04-17T06:01:17.849Z,14.60
2018-04-17T06:05:21.289Z,14.03
2018-04-17T06:09:23.970Z,14.47
2018-04-17T06:13:26.633Z,15.37
2018-04-17T06:17:29.305Z,15.70
2018-04-17T06:21:31.971Z,16.00
2018-04-17T06:25:34.655Z,16.60
2018-04-17T06:29:37.324Z,17.80
2018-04-17T06:33:40.004Z,16.33
2018-04-17T06:37:42.617Z,15.30
2018-04-17T06:41:45.333Z,16.37
2018-04-17T06:45:47.921Z,17.90
2018-04-17T06:49:50.563Z,19.87
2018-04-17T06:53:53.209Z,23.13
2018-04-17T06:57:56.629Z,24.17
2018-04-17T07:02:00.050Z,26.10
2018-04-17T07:06:02.712Z,27.83
2018-04-17T07:10:06.134Z,25.20
2018-04-17T07:14:08.785Z,24.57
2018-04-17T07:18:11.521Z,26.60
2018-04-17T07:22:14.180Z,25.73
2018-04-17T07:26:16.964Z,26.60
2018-04-17T07:30:19.629Z,25.07
2018-04-17T07:34:22.298Z,90.33
2018-04-17T07:38:24.917Z,103.50
2018-04-17T07:42:27.583Z,67.23
2018-04-17T07:46:30.252Z,45.10
2018-04-17T07:50:32.901Z,35.07
2018-04-17T07:54:35.641Z,26.07
2018-04-17T07:58:41.821Z,23.00
2018-04-17T08:02:44.463Z,19.97
2018-04-17T08:06:47.879Z,20.63
2018-04-17T08:10:50.540Z,19.93
2018-04-17T08:14:53.192Z,17.40
2018-04-17T08:18:55.808Z,17.63
2018-04-17T08:22:58.445Z,16.43
2018-04-17T08:27:01.093Z,17.40
2018-04-17T08:31:03.748Z,17.97
2018-04-17T08:35:06.396Z,16.23
2018-04-17T08:39:09.812Z,17.73
2018-04-17T08:43:12.468Z,18.63
2018-04-17T08:47:15.115Z,19.10
2018-04-17T08:51:17.777Z,20.97
2018-04-17T08:55:20.447Z,20.07
2018-04-17T08:59:27.568Z,19.40
2018-04-17T09:03:30.279Z,20.83
2018-04-17T09:07:32.931Z,20.63
2018-04-17T09:11:36.342Z,19.73
2018-04-17T09:15:39.000Z,30.63
2018-04-17T09:19:41.619Z,21.13
2018-04-17T09:23:44.277Z,20.67
2018-04-17T09:27:46.928Z,20.33
2018-04-17T09:31:49.581Z,18.63
2018-04-17T09:35:52.344Z,14.13
2018-04-17T09:39:54.985Z,15.80
2018-04-17T09:43:57.663Z,15.77
2018-04-17T09:48:00.344Z,16.10
2018-04-17T09:52:03.004Z,7.17
2018-04-17T09:56:06.444Z,5.73
2018-04-17T10:00:09.095Z,6.10
2018-04-17T10:04:11.754Z,7.50
2018-04-17T10:08:14.489Z,9.47
2018-04-17T10:12:17.925Z,9.60
2018-04-17T10:16:20.610Z,11.60
2018-04-17T10:20:23.288Z,8.30
2018-04-17T10:24:25.981Z,6.93
2018-04-17T10:28:28.655Z,6.57
2018-04-17T10:32:31.335Z,7.27
2018-04-17T10:36:34.762Z,7.23
2018-04-17T10:40:37.448Z,7.60
2018-04-17T10:44:40.099Z,8.37
2018-04-17T10:48:42.740Z,8.23
2018-04-17T10:52:45.392Z,9.20
2018-04-17T10:56:48.822Z,7.93
2018-04-17T11:00:51.429Z,9.63
2018-04-17T11:04:54.122Z,9.10
2018-04-17T11:08:56.740Z,9.07
2018-04-17T11:12:59.390Z,8.07
2018-04-17T11:17:02.120Z,9.23
2018-04-17T11:21:04.797Z,10.87
2018-04-17T11:25:08.275Z,9.57
2018-04-17T11:29:10.949Z,9.33
2018-04-17T11:33:13.623Z,10.37
2018-04-17T11:37:17.155Z,9.30
2018-04-17T11:41:19.779Z,7.97
2018-04-17T11:45:22.530Z,8.90
2018-04-17T11:49:25.197Z,8.80
2018-04-17T11:53:28.621Z,9.67
2018-04-17T11:57:31.367Z,8.50
2018-04-17T12:01:33.999Z,9.10
2018-04-17T12:05:36.641Z,7.37
2018-04-17T12:09:40.094Z,8.60
2018-04-17T12:13:42.790Z,8.10
2018-04-17T12:17:45.479Z,7.17
2018-04-17T12:21:48.149Z,6.20
2018-04-17T12:25:51.600Z,4.27
2018-04-17T12:29:54.314Z,3.90
2018-04-17T12:33:57.092Z,4.37
2018-04-17T12:37:59.749Z,4.10
2018-04-17T12:42:02.416Z,3.93
2018-04-17T12:46:05.100Z,3.13
2018-04-17T12:50:08.534Z,3.43
2018-04-17T12:54:11.202Z,3.63
2018-04-17T12:58:13.929Z,3.97
2018-04-17T13:02:16.613Z,4.30
2018-04-17T13:06:19.288Z,4.63
2018-04-17T13:10:21.947Z,4.77
2018-04-17T13:14:25.402Z,4.50
2018-04-17T13:18:28.056Z,4.83
2018-04-17T13:22:30.710Z,4.87
2018-04-17T13:26:33.396Z,5.40
2018-04-17T13:30:36.136Z,5.07
2018-04-17T13:34:38.780Z,5.20
2018-04-17T13:38:41.466Z,5.67
2018-04-17T13:42:44.934Z,6.17
2018-04-17T13:46:47.628Z,6.17
2018-04-17T13:50:50.300Z,6.53
2018-04-17T13:54:52.953Z,6.50
2018-04-17T13:58:55.634Z,8.20
2018-04-17T14:02:58.379Z,6.60
2018-04-17T14:07:01.062Z,8.40
2018-04-17T14:11:03.751Z,6.80
2018-04-17T14:15:06.412Z,7.03
2018-04-17T14:19:09.858Z,8.00
2018-04-17T14:23:12.514Z,6.97
2018-04-17T14:27:15.951Z,7.77
2018-04-17T14:31:18.661Z,6.87
2018-04-17T14:35:21.369Z,7.07
2018-04-17T14:39:24.041Z,6.97
2018-04-17T14:43:26.820Z,6.83
2018-04-17T14:47:29.502Z,6.57
2018-04-17T14:51:32.183Z,6.40
2018-04-17T14:55:34.877Z,9.17
2018-04-17T14:59:37.548Z,10.40
2018-04-17T15:03:40.292Z,10.03
2018-04-17T15:07:42.952Z,8.97
2018-04-17T15:11:45.563Z,9.73
2018-04-17T15:15:48.294Z,8.67
2018-04-17T15:19:51.794Z,8.93
2018-04-17T15:23:55.268Z,9.50
2018-04-17T15:27:57.932Z,9.60
2018-04-17T15:32:00.621Z,9.73
2018-04-17T15:36:03.315Z,8.30
2018-04-17T15:40:06.032Z,8.53
2018-04-17T15:44:09.802Z,9.13
2018-04-17T15:48:12.471Z,8.97
2018-04-17T15:52:15.912Z,8.23
2018-04-17T15:56:18.591Z,7.40
2018-04-17T16:00:21.307Z,7.70
2018-04-17T16:04:23.986Z,8.97
2018-04-17T16:08:26.676Z,8.07
2018-04-17T16:12:29.337Z,9.10
2018-04-17T16:16:32.041Z,9.37
2018-04-17T16:20:34.721Z,9.47
2018-04-17T16:24:37.457Z,9.20
2018-04-17T16:28:40.122Z,10.53
2018-04-17T16:32:42.798Z,10.53
2018-04-17T16:36:45.460Z,8.70
2018-04-17T16:40:48.148Z,9.73
2018-04-17T16:44:51.608Z,10.10
2018-04-17T16:48:54.283Z,9.23
2018-04-17T16:52:56.992Z,8.47
2018-04-17T16:56:59.680Z,9.27
2018-04-17T17:01:02.360Z,10.20
2018-04-17T17:05:05.049Z,9.90
2018-04-17T17:09:07.716Z,9.60
2018-04-17T17:13:10.453Z,9.30
2018-04-17T17:17:13.214Z,9.80
2018-04-17T17:21:15.890Z,9.10
2018-04-17T17:25:18.625Z,8.93
2018-04-17T17:29:21.414Z,9.13
2018-04-17T17:33:24.083Z,8.77
2018-04-17T17:37:26.832Z,8.80
2018-04-17T17:41:29.521Z,9.27
2018-04-17T17:45:32.182Z,7.80
2018-04-17T17:49:34.843Z,10.67
2018-04-17T17:53:37.519Z,10.00
2018-04-17T17:57:40.245Z,10.03
2018-04-17T18:01:42.870Z,10.13
2018-04-17T18:05:45.665Z,10.57
2018-04-17T18:09:48.320Z,9.23
2018-04-17T18:13:50.978Z,11.00
2018-04-17T18:17:53.695Z,9.30
2018-04-17T18:21:56.578Z,10.40
2018-04-17T18:25:59.248Z,10.23
2018-04-17T18:30:01.938Z,11.03
2018-04-17T18:34:04.644Z,11.13
2018-04-17T18:38:07.319Z,11.57
2018-04-17T18:42:09.948Z,11.30
2018-04-17T18:46:13.433Z,10.90
2018-04-17T18:50:16.108Z,10.97
2018-04-17T18:54:18.989Z,10.07
2018-04-17T18:58:21.608Z,10.93
2018-04-17T19:02:24.273Z,10.60
2018-04-17T19:06:26.981Z,9.97
2018-04-17T19:10:29.624Z,9.90
2018-04-17T19:14:32.306Z,10.77
2018-04-17T19:18:34.972Z,11.93
2018-04-17T19:22:38.380Z,9.60
2018-04-17T19:26:41.911Z,10.53
2018-04-17T19:30:44.561Z,10.63
2018-04-17T19:34:47.261Z,10.33
2018-04-17T19:38:50.721Z,11.07
2018-04-17T19:42:53.372Z,10.23
2018-04-17T19:46:56.840Z,10.67
2018-04-17T19:50:59.567Z,11.30
2018-04-17T19:55:03.792Z,10.67
2018-04-17T19:59:07.176Z,10.70
2018-04-17T20:03:09.816Z,11.00
2018-04-17T20:07:12.520Z,11.10
2018-04-17T20:11:15.167Z,10.87
2018-04-17T20:15:18.604Z,10.67
2018-04-17T20:19:21.243Z,10.93
2018-04-17T20:23:23.916Z,10.87
2018-04-17T20:27:26.566Z,10.90
2018-04-17T20:31:29.216Z,11.50
2018-04-17T20:35:32.599Z,12.40
2018-04-17T20:39:35.250Z,11.60
2018-04-17T20:43:37.964Z,10.47
2018-04-17T20:47:40.608Z,10.03
2018-04-17T20:51:43.252Z,10.50
2018-04-17T20:55:45.912Z,9.83
2018-04-17T20:59:48.555Z,10.10
2018-04-17T21:03:51.966Z,10.00
2018-04-17T21:07:55.382Z,10.70
2018-04-17T21:11:58.028Z,10.47
2018-04-17T21:16:00.686Z,10.57
2018-04-17T21:20:03.328Z,10.63
2018-04-17T21:24:06.747Z,10.03
2018-04-17T21:28:09.428Z,10.77
2018-04-17T21:32:12.795Z,9.87
2018-04-17T21:36:15.441Z,10.20
2018-04-17T21:40:18.848Z,10.50
2018-04-17T21:44:21.492Z,10.30
2018-04-17T21:48:24.152Z,11.47
2018-04-17T21:52:26.763Z,10.53
2018-04-17T21:56:29.416Z,10.07
2018-04-17T22:00:32.067Z,10.20
2018-04-17T22:04:35.497Z,11.37
2018-04-17T22:08:38.136Z,9.50
2018-04-17T22:12:40.744Z,8.57
2018-04-17T22:16:44.209Z,9.70
2018-04-17T22:20:46.866Z,9.10
2018-04-17T22:24:49.527Z,10.33
2018-04-17T22:28:52.931Z,8.83
2018-04-17T22:32:55.552Z,9.77
2018-04-17T22:36:58.259Z,9.30
2018-04-17T22:41:00.913Z,10.00
2018-04-17T22:45:04.316Z,9.67
2018-04-17T22:49:07.740Z,9.80
2018-04-17T22:53:10.353Z,10.33
2018-04-17T22:57:13.094Z,9.40
2018-04-17T23:01:16.514Z,10.37
2018-04-17T23:05:19.171Z,9.77
2018-04-17T23:09:21.828Z,10.03
2018-04-17T23:13:24.485Z,9.87
2018-04-17T23:17:27.145Z,9.83
2018-04-17T23:21:30.564Z,9.87
2018-04-17T23:25:33.973Z,10.20
2018-04-17T23:29:36.592Z,9.60
2018-04-17T23:33:39.230Z,10.10
2018-04-17T23:37:41.864Z,8.93
2018-04-17T23:41:44.498Z,9.33
2018-04-17T23:45:47.157Z,9.90
2018-04-17T23:49:49.769Z,11.60
2018-04-17T23:53:52.422Z,10.60
2018-04-17T23:57:55.064Z,11.03
